createdAt,value
2023-01-09T00:00:32.538Z,6.26
2023-01-09T00:03:54.756Z,6.19
2023-01-09T00:06:56.566Z,6.14
2023-01-09T00:09:58.510Z,6.10
2023-01-09T00:13:00.388Z,6.07
2023-01-09T00:16:06.691Z,6.05
2023-01-09T00:19:08.743Z,6.04
2023-01-09T00:22:10.573Z,6.02
2023-01-09T00:25:12.424Z,6.00
2023-01-09T00:28:14.253Z,5.99
2023-01-09T00:31:17.788Z,5.98
2023-01-09T00:34:19.698Z,5.98
2023-01-09T00:37:22.111Z,5.99
2023-01-09T00:40:24.089Z,6.02
2023-01-09T00:43:30.823Z,6.03
2023-01-09T00:46:37.205Z,6.04
2023-01-09T00:49:40.353Z,6.05
2023-01-09T00:52:43.378Z,6.04
2023-01-09T00:55:45.272Z,6.04
2023-01-09T00:58:47.818Z,6.04
2023-01-09T01:01:49.853Z,6.03
2023-01-09T01:05:09.963Z,6.02
2023-01-09T01:08:14.466Z,5.99
2023-01-09T01:11:16.576Z,5.99
2023-01-09T01:14:18.412Z,5.99
2023-01-09T01:17:20.363Z,6.00
2023-01-09T01:20:22.201Z,6.01
2023-01-09T01:23:24.272Z,6.01
2023-01-09T01:26:26.141Z,6.02
2023-01-09T01:29:28.175Z,6.04
2023-01-09T01:32:30.003Z,6.05
2023-01-09T01:35:31.914Z,6.05
2023-01-09T01:38:35.041Z,6.07
2023-01-09T01:41:37.859Z,6.08
2023-01-09T01:45:00.941Z,6.08
2023-01-09T01:48:12.288Z,6.08
2023-01-09T01:51:16.411Z,6.10
2023-01-09T01:54:25.033Z,6.10
2023-01-09T01:57:27.089Z,6.10
2023-01-09T02:00:36.585Z,6.10
2023-01-09T02:03:40.684Z,6.10
2023-01-09T02:06:43.899Z,6.08
2023-01-09T02:09:46.090Z,6.09
2023-01-09T02:12:47.826Z,6.09
2023-01-09T02:16:24.055Z,6.08
2023-01-09T02:20:16.952Z,6.07
2023-01-09T02:23:37.536Z,6.08
2023-01-09T02:27:23.900Z,6.07
2023-01-09T02:30:40.285Z,6.08
2023-01-09T02:33:50.272Z,6.08
2023-01-09T02:37:22.559Z,6.07
2023-01-09T02:40:47.418Z,6.07
2023-01-09T02:44:16.226Z,6.08
2023-01-09T02:47:18.008Z,6.08
2023-01-09T02:50:23.987Z,6.07
2023-01-09T02:53:50.516Z,6.08
2023-01-09T02:57:13.819Z,6.08
2023-01-09T03:00:15.751Z,6.08
2023-01-09T03:03:37.551Z,6.07
2023-01-09T03:06:47.109Z,6.06
2023-01-09T03:09:53.574Z,6.06
2023-01-09T03:12:59.004Z,6.05
2023-01-09T03:16:07.353Z,6.04
2023-01-09T03:19:15.633Z,6.03
2023-01-09T03:22:18.015Z,6.03
2023-01-09T03:25:20.649Z,6.01
2023-01-09T03:28:28.660Z,5.98
2023-01-09T03:31:30.610Z,5.96
2023-01-09T03:34:32.522Z,5.95
2023-01-09T03:37:34.380Z,5.93
2023-01-09T03:40:36.349Z,5.91
2023-01-09T03:43:38.429Z,5.90
2023-01-09T03:46:40.309Z,5.88
2023-01-09T03:49:42.177Z,5.87
2023-01-09T03:52:44.029Z,5.84
2023-01-09T03:55:47.496Z,5.82
2023-01-09T03:58:49.663Z,5.79
2023-01-09T04:01:52.330Z,5.76
2023-01-09T04:04:54.234Z,5.75
2023-01-09T04:07:56.076Z,5.73
2023-01-09T04:10:57.929Z,5.70
2023-01-09T04:13:59.846Z,5.68
2023-01-09T04:17:01.893Z,5.65
2023-01-09T04:20:04.136Z,5.64
2023-01-09T04:23:05.845Z,5.63
2023-01-09T04:26:07.733Z,5.59
2023-01-09T04:29:09.572Z,5.56
2023-01-09T04:32:11.401Z,5.54
2023-01-09T04:35:13.386Z,5.52
2023-01-09T04:38:15.277Z,5.51
2023-01-09T04:41:37.056Z,5.52
2023-01-09T04:44:38.976Z,5.52
2023-01-09T04:47:40.967Z,5.52
2023-01-09T04:50:42.885Z,5.52
2023-01-09T04:53:44.749Z,5.53
2023-01-09T04:56:47.043Z,5.53
2023-01-09T04:59:48.753Z,5.53
2023-01-09T05:02:50.694Z,5.53
2023-01-09T05:05:52.645Z,5.53
2023-01-09T05:08:55.987Z,5.51
2023-01-09T05:11:57.878Z,5.51
2023-01-09T05:14:59.746Z,5.50
2023-01-09T05:18:01.606Z,5.48
2023-01-09T05:21:03.866Z,5.47
2023-01-09T05:24:05.725Z,5.46
2023-01-09T05:27:07.675Z,5.45
2023-01-09T05:30:10.370Z,5.43
2023-01-09T05:33:12.293Z,5.41
2023-01-09T05:36:14.555Z,5.43
2023-01-09T05:39:16.226Z,5.43
2023-01-09T05:42:18.060Z,5.44
2023-01-09T05:45:20.073Z,5.45
2023-01-09T05:48:22.078Z,5.47
2023-01-09T05:51:23.916Z,5.50
2023-01-09T05:54:25.755Z,5.53
2023-01-09T05:57:28.241Z,5.55
2023-01-09T06:00:30.705Z,5.58
2023-01-09T06:03:32.864Z,5.59
2023-01-09T06:06:34.714Z,5.61
2023-01-09T06:09:36.606Z,5.59
2023-01-09T06:12:38.626Z,5.61
2023-01-09T06:15:40.622Z,5.62
2023-01-09T06:18:42.554Z,5.64
2023-01-09T06:21:44.414Z,5.65
2023-01-09T06:24:46.476Z,5.66
2023-01-09T06:27:49.468Z,5.67
2023-01-09T06:30:52.564Z,5.69
2023-01-09T06:33:54.501Z,5.70
2023-01-09T06:36:56.356Z,5.72
2023-01-09T06:39:58.748Z,5.73
2023-01-09T06:43:00.647Z,5.73
2023-01-09T06:46:04.941Z,5.74
2023-01-09T06:49:09.900Z,5.76
2023-01-09T06:52:11.855Z,5.77
2023-01-09T06:55:13.762Z,5.79
2023-01-09T06:58:15.796Z,5.80
2023-01-09T07:01:17.832Z,5.82
2023-01-09T07:04:21.464Z,5.84
2023-01-09T07:07:23.439Z,5.87
2023-01-09T07:10:25.397Z,5.90
2023-01-09T07:13:27.421Z,5.92
2023-01-09T07:16:29.261Z,5.95
2023-01-09T07:19:31.316Z,5.98
2023-01-09T07:22:33.327Z,6.00
2023-01-09T07:25:35.215Z,6.01
2023-01-09T07:28:37.096Z,6.04
2023-01-09T07:31:39.158Z,6.05
2023-01-09T07:34:41.132Z,6.05
2023-01-09T07:37:43.048Z,6.05
2023-01-09T07:40:44.961Z,6.05
2023-01-09T07:43:46.885Z,6.05
2023-01-09T07:46:48.782Z,6.06
2023-01-09T07:49:53.255Z,6.08
2023-01-09T07:52:55.162Z,6.09
2023-01-09T07:55:57.179Z,6.10
2023-01-09T07:58:59.505Z,6.11
2023-01-09T08:02:04.821Z,6.11
2023-01-09T08:05:12.959Z,6.10
2023-01-09T08:08:16.135Z,6.10
2023-01-09T08:11:27.047Z,6.11
2023-01-09T08:14:29.145Z,6.11
2023-01-09T08:17:31.777Z,6.14
2023-01-09T08:20:35.300Z,6.16
2023-01-09T08:23:44.416Z,6.19
2023-01-09T08:26:46.348Z,6.23
2023-01-09T08:29:48.290Z,6.26
2023-01-09T08:32:58.885Z,6.32
2023-01-09T08:36:03.412Z,6.36
2023-01-09T08:39:05.393Z,6.40
2023-01-09T08:42:28.266Z,6.43
2023-01-09T08:45:53.198Z,6.45
2023-01-09T08:48:56.667Z,6.47
2023-01-09T08:51:59.740Z,6.47
2023-01-09T08:55:01.651Z,6.49
2023-01-09T08:58:03.616Z,6.52
2023-01-09T09:01:06.887Z,6.54
2023-01-09T09:04:08.797Z,6.56
2023-01-09T09:07:10.654Z,6.59
2023-01-09T09:10:17.901Z,6.62
2023-01-09T09:13:19.874Z,6.65
2023-01-09T09:16:26.324Z,6.70
2023-01-09T09:19:28.291Z,6.73
2023-01-09T09:22:30.457Z,6.76
2023-01-09T09:25:32.342Z,6.78
2023-01-09T09:28:37.209Z,6.81
2023-01-09T09:31:39.237Z,6.83
2023-01-09T09:34:41.607Z,6.87
2023-01-09T09:37:53.546Z,6.90
2023-01-09T09:41:51.889Z,6.94
2023-01-09T09:44:54.358Z,7.01
2023-01-09T09:48:39.914Z,7.04
2023-01-09T09:52:22.397Z,7.08
2023-01-09T09:55:31.581Z,7.13
2023-01-09T09:58:48.136Z,7.17
2023-01-09T10:02:24.735Z,7.20
2023-01-09T10:10:33.132Z,7.38
2023-01-09T10:13:55.173Z,7.40
2023-01-09T10:17:17.767Z,7.41
2023-01-09T10:20:51.601Z,7.42
2023-01-09T10:23:54.838Z,7.45
2023-01-09T10:27:14.997Z,7.48
2023-01-09T10:30:40.102Z,7.51
2023-01-09T10:34:02.167Z,7.53
2023-01-09T10:37:20.172Z,7.55
2023-01-09T10:40:30.633Z,7.56
2023-01-09T10:43:47.028Z,7.58
2023-01-09T10:46:57.566Z,7.59
2023-01-09T10:50:16.031Z,7.61
2023-01-09T10:53:28.883Z,7.63
2023-01-09T10:56:40.138Z,7.65
2023-01-09T10:59:46.330Z,7.66
2023-01-09T11:02:50.890Z,7.67
2023-01-09T11:05:58.388Z,7.69
2023-01-09T11:09:02.920Z,7.71
2023-01-09T11:12:26.300Z,7.73
2023-01-09T11:15:52.959Z,7.74
2023-01-09T11:19:07.699Z,7.77
2023-01-09T11:22:20.055Z,7.80
2023-01-09T11:25:28.395Z,7.82
2023-01-09T11:28:31.897Z,7.84
2023-01-09T11:31:35.648Z,7.87
2023-01-09T11:34:40.247Z,7.89
2023-01-09T11:37:51.310Z,7.90
2023-01-09T11:41:03.143Z,7.93
2023-01-09T11:44:09.292Z,7.94
2023-01-09T11:47:38.744Z,7.96
2023-01-09T11:51:00.335Z,7.98
2023-01-09T11:54:35.167Z,8.00
2023-01-09T11:57:39.860Z,8.01
2023-01-09T12:01:00.334Z,8.03
2023-01-09T12:04:45.593Z,8.04
2023-01-09T12:08:30.542Z,8.06
2023-01-09T12:12:18.588Z,8.11
2023-01-09T12:15:32.462Z,8.14
2023-01-09T12:19:29.141Z,8.17
2023-01-09T12:23:23.801Z,8.21
2023-01-09T12:27:37.669Z,8.24
2023-01-09T12:39:38.668Z,8.31
2023-01-09T12:44:01.375Z,8.31
2023-01-09T12:47:36.384Z,8.32
2023-01-09T12:51:41.722Z,8.34
2023-01-09T12:54:55.095Z,8.34
2023-01-09T12:58:23.964Z,8.35
2023-01-09T13:01:56.896Z,8.35
2023-01-09T13:05:16.622Z,8.36
2023-01-09T13:08:43.619Z,8.36
2023-01-09T13:11:55.747Z,8.36
2023-01-09T13:15:07.824Z,8.37
2023-01-09T13:18:50.038Z,8.39
2023-01-09T13:21:58.250Z,8.41
2023-01-09T13:25:35.452Z,8.42
2023-01-09T13:29:18.365Z,8.45
2023-01-09T13:33:05.587Z,8.45
2023-01-09T13:36:38.875Z,8.46
2023-01-09T13:39:54.565Z,8.46
2023-01-09T13:43:20.087Z,8.46
2023-01-09T13:47:00.763Z,8.46
2023-01-09T13:50:09.711Z,8.46
2023-01-09T13:53:40.787Z,8.47
2023-01-09T13:57:45.865Z,8.48
2023-01-09T14:00:58.772Z,8.50
2023-01-09T14:04:41.753Z,8.51
2023-01-09T14:08:02.728Z,8.53
2023-01-09T14:11:57.559Z,8.55
2023-01-09T14:15:32.061Z,8.55
2023-01-09T14:18:52.285Z,8.55
2023-01-09T14:22:13.327Z,8.54
2023-01-09T14:25:24.239Z,8.54
2023-01-09T14:28:32.087Z,8.51
2023-01-09T14:31:35.569Z,8.50
2023-01-09T14:34:44.355Z,8.48
2023-01-09T14:38:01.609Z,8.46
2023-01-09T14:41:45.809Z,8.45
2023-01-09T14:45:31.073Z,8.44
2023-01-09T14:48:50.926Z,8.41
2023-01-09T14:51:58.351Z,8.39
2023-01-09T14:55:41.462Z,8.38
2023-01-09T14:58:48.233Z,8.36
2023-01-09T15:02:02.266Z,8.36
2023-01-09T15:05:15.071Z,8.35
2023-01-09T15:08:22.438Z,8.35
2023-01-09T15:11:29.757Z,8.35
2023-01-09T15:15:10.313Z,8.33
2023-01-09T15:18:24.381Z,8.33
2023-01-09T15:21:31.276Z,8.31
2023-01-09T15:24:39.439Z,8.31
2023-01-09T15:27:51.814Z,8.31
2023-01-09T15:31:08.234Z,8.31
2023-01-09T15:34:18.153Z,8.29
2023-01-09T15:37:30.534Z,8.29
2023-01-09T15:40:34.982Z,8.29
2023-01-09T15:43:44.146Z,8.27
2023-01-09T15:46:50.324Z,8.28
2023-01-09T15:49:55.966Z,8.27
2023-01-09T15:58:26.892Z,8.26
2023-01-09T16:01:47.916Z,8.25
2023-01-09T16:04:55.065Z,8.24
2023-01-09T16:07:59.226Z,8.25
2023-01-09T16:11:10.645Z,8.25
2023-01-09T16:14:21.046Z,8.26
2023-01-09T16:17:26.704Z,8.26
2023-01-09T16:20:30.243Z,8.26
2023-01-09T16:23:35.764Z,8.25
2023-01-09T16:26:45.656Z,8.25
2023-01-09T16:29:58.747Z,8.26
2023-01-09T16:33:02.558Z,8.27
2023-01-09T16:36:06.319Z,8.26
2023-01-09T16:39:27.861Z,8.25
2023-01-09T16:42:53.650Z,8.25
2023-01-09T16:45:57.171Z,8.25
2023-01-09T16:49:00.458Z,8.24
2023-01-09T16:52:17.562Z,8.23
2023-01-09T16:55:21.132Z,8.21
2023-01-09T16:58:30.499Z,8.20
2023-01-09T17:01:33.904Z,8.19
2023-01-09T17:04:37.174Z,8.18
2023-01-09T17:07:40.488Z,8.17
2023-01-09T17:10:44.477Z,8.16
2023-01-09T17:13:48.394Z,8.15
2023-01-09T17:16:52.122Z,8.15
2023-01-09T17:19:58.069Z,8.14
2023-01-09T17:23:04.468Z,8.14
2023-01-09T17:26:36.745Z,8.14
2023-01-09T17:29:40.405Z,8.14
2023-01-09T17:32:47.933Z,8.14
2023-01-09T17:35:51.537Z,8.12
2023-01-09T17:38:57.882Z,8.12
2023-01-09T17:42:02.010Z,8.12
2023-01-09T17:45:10.092Z,8.11
2023-01-09T17:48:21.855Z,8.11
2023-01-09T17:51:25.466Z,8.10
2023-01-09T17:54:28.941Z,8.10
2023-01-09T17:57:32.965Z,8.11
2023-01-09T18:00:39.691Z,8.11
2023-01-09T18:03:44.385Z,8.10
2023-01-09T18:06:49.647Z,8.09
2023-01-09T18:09:53.555Z,8.09
2023-01-09T18:12:57.045Z,8.08
2023-01-09T18:16:01.389Z,8.08
2023-01-09T18:19:04.865Z,8.08
2023-01-09T18:22:10.216Z,8.08
2023-01-09T18:25:13.495Z,8.06
2023-01-09T18:28:19.780Z,8.06
2023-01-09T18:31:24.631Z,8.06
2023-01-09T18:34:27.882Z,8.05
2023-01-09T18:37:31.172Z,8.04
2023-01-09T18:40:34.548Z,8.01
2023-01-09T18:43:37.820Z,7.99
2023-01-09T18:46:42.161Z,7.98
2023-01-09T18:49:45.373Z,7.97
2023-01-09T18:52:48.599Z,7.94
2023-01-09T18:55:51.777Z,7.92
2023-01-09T18:58:57.299Z,7.90
2023-01-09T19:02:02.198Z,7.89
2023-01-09T19:05:06.459Z,7.87
2023-01-09T19:08:09.683Z,7.86
2023-01-09T19:11:12.933Z,7.85
2023-01-09T19:14:16.193Z,7.84
2023-01-09T19:17:19.633Z,7.83
2023-01-09T19:20:23.411Z,7.82
2023-01-09T19:23:26.685Z,7.82
2023-01-09T19:26:31.097Z,7.82
2023-01-09T19:29:36.616Z,7.80
2023-01-09T19:32:40.619Z,7.80
2023-01-09T19:35:48.933Z,7.79
2023-01-09T19:38:59.904Z,7.77
2023-01-09T19:42:03.788Z,7.76
2023-01-09T19:45:08.258Z,7.74
2023-01-09T19:48:11.675Z,7.74
2023-01-09T19:51:20.112Z,7.72
2023-01-09T19:54:23.607Z,7.72
2023-01-09T19:57:26.866Z,7.71
2023-01-09T20:00:30.220Z,7.71
2023-01-09T20:03:33.496Z,7.69
2023-01-09T20:06:41.727Z,7.67
2023-01-09T20:09:45.571Z,7.66
2023-01-09T20:12:49.558Z,7.65
2023-01-09T20:15:59.079Z,7.63
2023-01-09T20:19:09.670Z,7.60
2023-01-09T20:22:13.594Z,7.58
2023-01-09T20:25:16.933Z,7.56
2023-01-09T20:28:21.274Z,7.53
2023-01-09T20:31:31.203Z,7.51
2023-01-09T20:34:34.600Z,7.50
2023-01-09T20:40:57.362Z,7.48
2023-01-09T20:44:12.932Z,7.47
2023-01-09T20:47:16.181Z,7.47
2023-01-09T20:50:19.486Z,7.45
2023-01-09T20:53:22.910Z,7.42
2023-01-09T20:56:29.123Z,7.41
2023-01-09T20:59:32.552Z,7.38
2023-01-09T21:02:36.176Z,7.37
2023-01-09T21:05:43.537Z,7.36
2023-01-09T21:09:10.241Z,7.35
2023-01-09T21:12:44.539Z,7.33
2023-01-09T21:17:36.664Z,7.33
2023-01-09T21:20:44.729Z,7.29
2023-01-09T21:24:07.836Z,7.26
2023-01-09T21:30:28.513Z,7.21
2023-01-09T21:33:31.833Z,7.22
2023-01-09T21:36:35.711Z,7.20
2023-01-09T21:43:23.755Z,7.18
2023-01-09T21:46:45.308Z,7.17
2023-01-09T21:49:48.780Z,7.15
2023-01-09T21:52:52.003Z,7.14
2023-01-09T21:55:55.370Z,7.14
2023-01-09T21:58:58.790Z,7.14
2023-01-09T22:02:11.873Z,7.14
2023-01-09T22:05:15.197Z,7.15
2023-01-09T22:08:18.686Z,7.15
2023-01-09T22:11:21.934Z,7.15
2023-01-09T22:14:25.121Z,7.16
2023-01-09T22:17:29.050Z,7.17
2023-01-09T22:20:32.263Z,7.17
2023-01-09T22:23:35.563Z,7.17
2023-01-09T22:26:38.734Z,7.18
2023-01-09T22:29:41.961Z,7.18
2023-01-09T22:32:45.288Z,7.17
2023-01-09T22:35:48.521Z,7.18
2023-01-09T22:38:56.442Z,7.17
2023-01-09T22:41:59.791Z,7.17
2023-01-09T22:45:03.407Z,7.17
2023-01-09T22:48:06.671Z,7.16
2023-01-09T22:51:09.812Z,7.16
2023-01-09T22:54:13.009Z,7.15
2023-01-09T22:57:16.239Z,7.16
2023-01-09T23:00:19.682Z,7.15
2023-01-09T23:08:16.538Z,7.13
2023-01-09T23:11:47.505Z,7.13
2023-01-09T23:14:50.760Z,7.13
2023-01-09T23:17:53.751Z,7.14
2023-01-09T23:20:59.880Z,7.14
2023-01-09T23:24:03.107Z,7.15
2023-01-09T23:27:07.533Z,7.14
2023-01-09T23:30:11.116Z,7.14
2023-01-09T23:33:14.647Z,7.15
2023-01-09T23:36:17.901Z,7.16
2023-01-09T23:39:21.456Z,7.17
2023-01-09T23:42:43.302Z,7.16
2023-01-09T23:45:46.784Z,7.16
2023-01-09T23:48:50.037Z,7.15
2023-01-09T23:51:53.160Z,7.15
2023-01-09T23:54:56.922Z,7.14
2023-01-09T23:58:00.533Z,7.13
